x

East Scotia Slope (44137) Wave Buoy

3:00am - Wed 26th Nov 2014 All times are EST. -5 hours from GMT.

  • Sig Wave height 8.2ft
  • Peak Period 8s
  • Wind
    18mph, 22mph gusts
  • Sea Temp 58°f
  • Air Temp 59°f
  • Sea Pressure 1019.7mb
  • East Scotia Slope
  • East Scotia Slope

More Historic Weather Station data

Upgrade to MSW Pro to gain access to the past 30 days of data for over 8000 Wavebouys and Weather Stations around the globe.

Join Pro

Comparision Forecast

View Surf forecast
   
Wed 11/26 3:00am 8ft 8s 18 22 mph 1019.7mb 58f 59f
2:00am 8ft 8s 13 16 mph 1019.1mb 58f 59f
1:00am 9ft 10s 11 13 mph 1018.4mb 58f 59f
12:00am 9ft 10s 13 16 mph 1017.6mb 58f 61f
Tue 11/25 11:00pm 9ft 9s 13 18 mph 1016.9mb 58f 62f
10:00pm 9.5ft 9s 13
mph
1016.7mb 58f 62f
9:00pm 10ft 10s 13 18 mph 1017mb 58f 62f
8:00pm 10ft 10s 16 18 mph 1017.1mb 58f 62f
7:00pm 11ft 11s 18 20 mph 1017.5mb 58f 62f
6:00pm 11ft 11s 13 16 mph 1017.3mb 58f 62f
5:00pm 10.5ft 10s 16 18 mph 1017.1mb 58f 62f
4:00pm 12ft 11s 9 13 mph 1016.8mb 58f 60f
3:00pm 12ft 11s 18 22 mph 1016.9mb 58f 62f
2:00pm 13ft 10s 16 18 mph 1016.3mb 58f 62f
1:00pm 13.5ft 11s 22 29 mph 1015.7mb 58f 64f
12:00pm 13ft 11s 27 31 mph 1015.4mb 58f 65f
11:00am 13ft 10s 25 29 mph 1015.7mb 57f 65f
10:00am 13.5ft 10s 20 25 mph 1016.5mb 57f 64f
9:00am 13ft 10s 27 31 mph 1016.6mb 57f 65f
8:00am 14.5ft 10s 27 34 mph 1017mb 57f 65f
7:00am 13.5ft 10s 25 31 mph 1016.7mb 57f 65f
6:00am 14ft 10s 27 31 mph 1016.4mb 57f 65f
5:00am 13ft 10s 29 36 mph 1015.8mb 57f 65f
4:00am 12.5ft 9s 27 34 mph 1016.1mb 57f 65f
3:00am 12ft 9s 29 36 mph 1015.8mb 57f 65f
2:00am 11ft 8s 29 34 mph 1016.4mb 58f 65f
1:00am 11ft 8s 29 36 mph 1016.7mb 58f 65f
12:00am 10.5ft 8s 29 34 mph 1016.8mb 58f 65f
Mon 11/24 11:00pm 10ft 7s 29 34 mph 1017.4mb 58f 64f
10:00pm 9ft 7s 29 36 mph 1018.1mb 58f 64f
9:00pm 8.5ft 6s 29 36 mph 1018.6mb 58f 64f
8:00pm 8ft 6s 29 38 mph 1019.5mb 59f 64f
7:00pm 7ft 6s 27 34 mph 1020mb 58f 65f
6:00pm 6ft 6s 22 27 mph 1020.4mb 59f 64f
5:00pm 6ft 8s 22 27 mph 1020.5mb 59f 64f
4:00pm 6ft 8s 18 20 mph 1022.1mb 59f 62f
3:00pm 6ft 9s 18 20 mph 1023mb 59f 63f
2:00pm 5ft 10s 18 22 mph 1023.1mb 60f 63f
1:00pm 5ft 9s 18 20 mph 1023.8mb 60f 62f
12:00pm 5ft 9s 16 18 mph 1023.5mb 60f 62f
11:00am 5ft 10s 13 16 mph 1024.3mb 60f 61f
10:00am 5.5ft 8s 9 11 mph 1025.3mb 60f 61f
9:00am 6ft 10s 7 9 mph 1026mb 60f 60f
8:00am 6.5ft 10s 9 11 mph 1026.4mb 59f 58f
7:00am 6.5ft 10s 7 9 mph 1026.2mb 59f 57f
6:00am 7ft 10s 4 7 mph 1026mb 59f 55f
5:00am 7.5ft 9s 2 4 mph 1025.8mb 59f 54f
4:00am 8ft 9s 2 4 mph 1025.8mb 59f 54f
3:00am 8.5ft 10s 4 7 mph 1025.5mb 59f 53f
2:00am 8ft 10s 7 9 mph 1025.5mb 60f 53f
1:00am 9.5ft 10s 9 11 mph 1025.2mb 60f 53f
12:00am 10ft 10s 9 13 mph 1024.7mb 60f 53f
Sun 11/23 11:00pm 9.5ft 10s 11 16 mph 1024.9mb 60f 54f
10:00pm 10ft 10s 13 18 mph 1024.6mb 60f 54f
9:00pm 10ft 10s 13 18 mph 1024.1mb 60f 54f
8:00pm 11ft 10s 13 18 mph 1023.5mb 59f 54f
7:00pm 11.5ft 10s 18 20 mph 1023.4mb 59f 54f
6:00pm 12ft 11s 18 22 mph 1023.2mb 59f 54f
5:00pm 13ft 10s 20 25 mph 1022.3mb 59f 54f
4:00pm 15ft 11s 22 27 mph 1021.3mb 59f 54f
3:00pm 15ft 11s 22 27 mph 1020.6mb 59f 53f
2:00pm 15.5ft 10s 27 34 mph 1020.1mb 59f 53f
1:00pm 16ft 11s 27 34 mph 1019.6mb 59f 54f
12:00pm 15ft 11s 29 38 mph 1019.1mb 59f 53f
11:00am 15.5ft 11s 29 36 mph 1019.2mb 59f 53f
10:00am 15.5ft 11s 29 36 mph 1019.1mb 59f 54f
9:00am 17ft 11s 31 40 mph 1018.9mb 60f 55f
8:00am 16.5ft 10s 31 38 mph 1018.5mb 60f 55f
7:00am 18ft 10s 31 40 mph 1017.9mb 60f 55f
6:00am 15.5ft 10s 34 40 mph 1017.4mb 60f 56f
5:00am 14.5ft 10s 36 43 mph 1016.9mb 61f 57f
4:00am 14.5ft 9s 34 45 mph 1017mb 61f 57f
3:00am 15.5ft 9s 34 43 mph 1017.4mb 61f 56f
2:00am 14.5ft 9s 34 43 mph 1017.9mb 61f 56f
12:00am 12.5ft 9s 36 45 mph 1018.6mb 61f 54f
Sat 11/22 11:00pm 12ft 9s 31 40 mph 1019.5mb 61f 53f
10:00pm 11ft 8s 31 38 mph 1020mb 60f 52f
9:00pm 11ft 6s 31 40 mph 1020.4mb 60f 51f
8:00pm  -   -  31
mph
1020.7mb - 50f
7:00pm 10ft 8s 31 36 mph 1021.2mb 60f 49f
6:00pm 10.5ft 7s 27 36 mph 1021.6mb 60f 47f
5:00pm 10.5ft 9s 22 31 mph 1022mb 60f 46f
4:00pm 11ft 9s 27 34 mph 1022.7mb 60f 44f
3:00pm 11ft 9s 27 36 mph 1023.2mb 60f 43f
2:00pm 12ft 10s 27 36 mph 1023.5mb 60f 42f
1:00pm 11ft 10s 29
mph
1023.7mb 60f 42f
12:00pm 12ft 10s 27 36 mph 1024mb 60f 41f
11:00am 11.5ft 10s 27 43 mph 1024.1mb 60f 40f
10:00am 12ft 9s 27 36 mph 1024.5mb 61f 40f